sensor_id;sensor_type;location;lat;lon;timestamp;temperature;humidity
32394;DHT22;18853;45.426;9.206;2022-10-04T00:03:09;24.10;53.30
32394;DHT22;18853;45.426;9.206;2022-10-04T00:05:36;24.10;53.30
32394;DHT22;18853;45.426;9.206;2022-10-04T00:10:44;24.10;53.30
32394;DHT22;18853;45.426;9.206;2022-10-04T00:13:22;24.00;53.40
32394;DHT22;18853;45.426;9.206;2022-10-04T00:15:50;24.00;53.50
32394;DHT22;18853;45.426;9.206;2022-10-04T00:33:36;23.90;53.50
32394;DHT22;18853;45.426;9.206;2022-10-04T00:41:38;23.80;53.80
32394;DHT22;18853;45.426;9.206;2022-10-04T00:44:10;23.80;53.80
32394;DHT22;18853;45.426;9.206;2022-10-04T00:46:39;23.80;53.90
32394;DHT22;18853;45.426;9.206;2022-10-04T00:49:07;23.80;53.90
32394;DHT22;18853;45.426;9.206;2022-10-04T00:51:42;23.80;53.90
32394;DHT22;18853;45.426;9.206;2022-10-04T00:54:22;23.80;53.90
32394;DHT22;18853;45.426;9.206;2022-10-04T00:56:55;23.80;53.90
32394;DHT22;18853;45.426;9.206;2022-10-04T00:59:34;23.80;54.10
32394;DHT22;18853;45.426;9.206;2022-10-04T01:02:02;23.80;54.00
32394;DHT22;18853;45.426;9.206;2022-10-04T01:04:40;23.70;54.10
32394;DHT22;18853;45.426;9.206;2022-10-04T01:07:07;23.80;54.10
32394;DHT22;18853;45.426;9.206;2022-10-04T01:09:38;23.70;54.20
32394;DHT22;18853;45.426;9.206;2022-10-04T01:12:25;23.80;54.20
32394;DHT22;18853;45.426;9.206;2022-10-04T01:18:17;23.80;54.10
32394;DHT22;18853;45.426;9.206;2022-10-04T01:20:53;23.70;54.20
32394;DHT22;18853;45.426;9.206;2022-10-04T01:23:33;23.50;54.50
32394;DHT22;18853;45.426;9.206;2022-10-04T01:25:59;23.50;54.50
32394;DHT22;18853;45.426;9.206;2022-10-04T01:28:26;23.50;54.30
32394;DHT22;18853;45.426;9.206;2022-10-04T01:30:52;23.60;54.30
32394;DHT22;18853;45.426;9.206;2022-10-04T01:33:18;23.60;54.40
32394;DHT22;18853;45.426;9.206;2022-10-04T01:35:44;23.60;54.40
32394;DHT22;18853;45.426;9.206;2022-10-04T01:38:10;23.50;54.40
32394;DHT22;18853;45.426;9.206;2022-10-04T01:40:53;23.50;54.40
32394;DHT22;18853;45.426;9.206;2022-10-04T01:43:25;23.50;54.60
32394;DHT22;18853;45.426;9.206;2022-10-04T01:45:59;23.50;54.60
32394;DHT22;18853;45.426;9.206;2022-10-04T01:48:33;23.50;54.60
32394;DHT22;18853;45.426;9.206;2022-10-04T01:51:21;23.40;54.60
32394;DHT22;18853;45.426;9.206;2022-10-04T01:53:55;23.50;54.70
32394;DHT22;18853;45.426;9.206;2022-10-04T01:56:26;23.40;54.70
32394;DHT22;18853;45.426;9.206;2022-10-04T01:59:02;23.40;54.70
32394;DHT22;18853;45.426;9.206;2022-10-04T02:04:01;23.40;54.90
32394;DHT22;18853;45.426;9.206;2022-10-04T02:06:36;23.40;54.80
32394;DHT22;18853;45.426;9.206;2022-10-04T02:09:08;23.40;54.80
32394;DHT22;18853;45.426;9.206;2022-10-04T02:11:34;23.40;54.90
32394;DHT22;18853;45.426;9.206;2022-10-04T02:14:03;23.30;54.90
32394;DHT22;18853;45.426;9.206;2022-10-04T02:16:31;23.30;54.90
32394;DHT22;18853;45.426;9.206;2022-10-04T02:19:01;23.30;54.90
32394;DHT22;18853;45.426;9.206;2022-10-04T02:21:28;23.20;55.00
32394;DHT22;18853;45.426;9.206;2022-10-04T02:23:54;23.20;55.00
32394;DHT22;18853;45.426;9.206;2022-10-04T02:26:21;23.20;55.00
32394;DHT22;18853;45.426;9.206;2022-10-04T02:28:47;23.20;55.10
32394;DHT22;18853;45.426;9.206;2022-10-04T02:31:13;23.20;55.10
32394;DHT22;18853;45.426;9.206;2022-10-04T02:34:02;23.20;55.20
32394;DHT22;18853;45.426;9.206;2022-10-04T02:36:28;23.10;55.40
32394;DHT22;18853;45.426;9.206;2022-10-04T02:39:01;23.10;55.50
32394;DHT22;18853;45.426;9.206;2022-10-04T02:44:30;23.10;55.40
32394;DHT22;18853;45.426;9.206;2022-10-04T02:47:15;23.10;55.40
32394;DHT22;18853;45.426;9.206;2022-10-04T02:49:52;23.10;55.70
32394;DHT22;18853;45.426;9.206;2022-10-04T02:55:01;23.00;55.80
32394;DHT22;18853;45.426;9.206;2022-10-04T02:57:30;23.00;55.90
32394;DHT22;18853;45.426;9.206;2022-10-04T03:00:22;23.00;55.90
32394;DHT22;18853;45.426;9.206;2022-10-04T03:03:12;23.00;55.90
32394;DHT22;18853;45.426;9.206;2022-10-04T03:05:45;23.10;56.00
32394;DHT22;18853;45.426;9.206;2022-10-04T03:08:12;23.00;55.90
32394;DHT22;18853;45.426;9.206;2022-10-04T03:10:41;23.00;56.00
32394;DHT22;18853;45.426;9.206;2022-10-04T03:13:07;23.00;55.90
32394;DHT22;18853;45.426;9.206;2022-10-04T03:15:33;23.00;55.90
32394;DHT22;18853;45.426;9.206;2022-10-04T03:17:59;23.10;56.00
32394;DHT22;18853;45.426;9.206;2022-10-04T03:20:25;23.10;56.00
32394;DHT22;18853;45.426;9.206;2022-10-04T03:22:54;23.10;55.90
32394;DHT22;18853;45.426;9.206;2022-10-04T03:25:28;23.10;56.00
32394;DHT22;18853;45.426;9.206;2022-10-04T03:27:58;23.10;55.90
32394;DHT22;18853;45.426;9.206;2022-10-04T03:30:26;23.10;55.90
32394;DHT22;18853;45.426;9.206;2022-10-04T03:32:52;23.10;55.70
32394;DHT22;18853;45.426;9.206;2022-10-04T03:35:31;23.00;55.70
32394;DHT22;18853;45.426;9.206;2022-10-04T03:37:58;23.00;55.80
32394;DHT22;18853;45.426;9.206;2022-10-04T03:40:27;22.90;56.00
32394;DHT22;18853;45.426;9.206;2022-10-04T03:42:54;22.90;56.00
32394;DHT22;18853;45.426;9.206;2022-10-04T03:45:21;22.90;56.10
32394;DHT22;18853;45.426;9.206;2022-10-04T03:47:49;22.90;56.10
32394;DHT22;18853;45.426;9.206;2022-10-04T03:50:28;22.80;56.10
32394;DHT22;18853;45.426;9.206;2022-10-04T03:53:11;22.90;56.30
32394;DHT22;18853;45.426;9.206;2022-10-04T03:55:42;22.80;56.30
32394;DHT22;18853;45.426;9.206;2022-10-04T03:58:10;22.70;56.30
32394;DHT22;18853;45.426;9.206;2022-10-04T04:00:46;22.70;56.30
32394;DHT22;18853;45.426;9.206;2022-10-04T04:03:19;22.80;56.40
32394;DHT22;18853;45.426;9.206;2022-10-04T04:05:50;22.70;56.50
32394;DHT22;18853;45.426;9.206;2022-10-04T04:08:31;22.70;56.40
32394;DHT22;18853;45.426;9.206;2022-10-04T04:10:59;22.70;56.30
32394;DHT22;18853;45.426;9.206;2022-10-04T04:16:21;22.70;56.20
32394;DHT22;18853;45.426;9.206;2022-10-04T04:18:51;22.60;56.40
32394;DHT22;18853;45.426;9.206;2022-10-04T04:21:19;22.60;56.40
32394;DHT22;18853;45.426;9.206;2022-10-04T04:23:54;22.60;56.30
32394;DHT22;18853;45.426;9.206;2022-10-04T04:26:29;22.60;56.30
32394;DHT22;18853;45.426;9.206;2022-10-04T04:29:45;22.60;56.30
32394;DHT22;18853;45.426;9.206;2022-10-04T04:33:08;22.60;56.10
32394;DHT22;18853;45.426;9.206;2022-10-04T04:38:05;22.50;56.30
32394;DHT22;18853;45.426;9.206;2022-10-04T04:40:32;22.50;56.20
32394;DHT22;18853;45.426;9.206;2022-10-04T04:43:00;22.50;56.30
32394;DHT22;18853;45.426;9.206;2022-10-04T04:45:28;22.50;56.30
32394;DHT22;18853;45.426;9.206;2022-10-04T04:47:56;22.50;56.30
32394;DHT22;18853;45.426;9.206;2022-10-04T04:50:24;22.40;56.20
32394;DHT22;18853;45.426;9.206;2022-10-04T04:55:22;22.40;56.20
32394;DHT22;18853;45.426;9.206;2022-10-04T04:57:50;22.40;56.20
32394;DHT22;18853;45.426;9.206;2022-10-04T05:00:19;22.40;56.20
32394;DHT22;18853;45.426;9.206;2022-10-04T05:02:57;22.40;56.20
32394;DHT22;18853;45.426;9.206;2022-10-04T05:05:25;22.40;56.20
32394;DHT22;18853;45.426;9.206;2022-10-04T05:08:24;22.40;56.30
32394;DHT22;18853;45.426;9.206;2022-10-04T05:13:39;22.30;56.50
32394;DHT22;18853;45.426;9.206;2022-10-04T05:19:08;22.30;56.60
32394;DHT22;18853;45.426;9.206;2022-10-04T05:21:40;22.30;56.60
32394;DHT22;18853;45.426;9.206;2022-10-04T05:24:29;22.20;56.50
32394;DHT22;18853;45.426;9.206;2022-10-04T05:27:02;22.30;57.10
32394;DHT22;18853;45.426;9.206;2022-10-04T05:29:35;22.20;56.50
32394;DHT22;18853;45.426;9.206;2022-10-04T05:35:09;22.30;56.30
32394;DHT22;18853;45.426;9.206;2022-10-04T05:42:45;22.20;56.40
32394;DHT22;18853;45.426;9.206;2022-10-04T05:45:30;22.30;56.30
32394;DHT22;18853;45.426;9.206;2022-10-04T05:47:59;22.30;56.20
32394;DHT22;18853;45.426;9.206;2022-10-04T05:56:32;22.30;56.30
32394;DHT22;18853;45.426;9.206;2022-10-04T06:04:43;22.20;56.60
32394;DHT22;18853;45.426;9.206;2022-10-04T06:12:54;22.10;56.60
32394;DHT22;18853;45.426;9.206;2022-10-04T06:23:40;22.10;56.70
32394;DHT22;18853;45.426;9.206;2022-10-04T06:26:13;22.10;56.90
32394;DHT22;18853;45.426;9.206;2022-10-04T06:28:46;22.10;57.00
32394;DHT22;18853;45.426;9.206;2022-10-04T06:31:26;22.10;57.00
32394;DHT22;18853;45.426;9.206;2022-10-04T06:36:48;22.10;57.00
32394;DHT22;18853;45.426;9.206;2022-10-04T06:39:41;22.10;57.10
32394;DHT22;18853;45.426;9.206;2022-10-04T06:58:42;22.30;57.00
32394;DHT22;18853;45.426;9.206;2022-10-04T07:01:34;22.30;56.80
32394;DHT22;18853;45.426;9.206;2022-10-04T07:06:44;22.40;56.40
32394;DHT22;18853;45.426;9.206;2022-10-04T07:09:23;22.40;56.30
32394;DHT22;18853;45.426;9.206;2022-10-04T07:12:04;22.50;56.30
32394;DHT22;18853;45.426;9.206;2022-10-04T07:14:38;22.50;56.10
32394;DHT22;18853;45.426;9.206;2022-10-04T07:17:16;22.40;56.40
32394;DHT22;18853;45.426;9.206;2022-10-04T07:19:45;22.40;56.50
32394;DHT22;18853;45.426;9.206;2022-10-04T07:25:19;22.30;56.60
32394;DHT22;18853;45.426;9.206;2022-10-04T07:28:01;22.40;56.40
32394;DHT22;18853;45.426;9.206;2022-10-04T07:30:59;22.40;56.40
32394;DHT22;18853;45.426;9.206;2022-10-04T07:33:34;22.40;56.50
32394;DHT22;18853;45.426;9.206;2022-10-04T07:36:10;22.40;56.60
32394;DHT22;18853;45.426;9.206;2022-10-04T07:38:43;22.40;56.60
32394;DHT22;18853;45.426;9.206;2022-10-04T07:41:28;22.40;56.70
32394;DHT22;18853;45.426;9.206;2022-10-04T07:44:02;22.40;56.60
32394;DHT22;18853;45.426;9.206;2022-10-04T07:46:37;22.40;56.70
32394;DHT22;18853;45.426;9.206;2022-10-04T07:49:14;22.40;56.50
32394;DHT22;18853;45.426;9.206;2022-10-04T07:57:29;22.30;57.50
32394;DHT22;18853;45.426;9.206;2022-10-04T08:00:04;22.40;56.90
32394;DHT22;18853;45.426;9.206;2022-10-04T08:02:59;22.50;56.90
32394;DHT22;18853;45.426;9.206;2022-10-04T08:05:33;22.60;56.30
32394;DHT22;18853;45.426;9.206;2022-10-04T08:11:02;22.50;56.00
32394;DHT22;18853;45.426;9.206;2022-10-04T08:13:41;22.60;56.00
32394;DHT22;18853;45.426;9.206;2022-10-04T08:16:54;22.60;55.80
32394;DHT22;18853;45.426;9.206;2022-10-04T08:22:13;22.60;55.80
32394;DHT22;18853;45.426;9.206;2022-10-04T08:27:42;22.70;55.70
32394;DHT22;18853;45.426;9.206;2022-10-04T09:01:45;23.00;55.90
32394;DHT22;18853;45.426;9.206;2022-10-04T09:05:07;23.00;55.70
32394;DHT22;18853;45.426;9.206;2022-10-04T09:15:24;23.20;55.50
32394;DHT22;18853;45.426;9.206;2022-10-04T09:24:10;23.20;55.20
32394;DHT22;18853;45.426;9.206;2022-10-04T09:29:58;23.30;55.60
32394;DHT22;18853;45.426;9.206;2022-10-04T09:39:03;23.50;55.00
32394;DHT22;18853;45.426;9.206;2022-10-04T09:44:52;23.60;54.80
32394;DHT22;18853;45.426;9.206;2022-10-04T09:48:18;23.70;54.40
32394;DHT22;18853;45.426;9.206;2022-10-04T09:59:45;23.80;54.50
32394;DHT22;18853;45.426;9.206;2022-10-04T10:08:15;23.80;54.60
32394;DHT22;18853;45.426;9.206;2022-10-04T10:10:57;23.90;55.00
32394;DHT22;18853;45.426;9.206;2022-10-04T10:33:53;24.10;55.40
32394;DHT22;18853;45.426;9.206;2022-10-04T11:12:52;24.40;55.10
32394;DHT22;18853;45.426;9.206;2022-10-04T11:29:34;24.60;54.80
32394;DHT22;18853;45.426;9.206;2022-10-04T11:35:31;24.70;54.20
32394;DHT22;18853;45.426;9.206;2022-10-04T11:46:54;25.00;54.10
32394;DHT22;18853;45.426;9.206;2022-10-04T12:09:51;25.30;52.80
32394;DHT22;18853;45.426;9.206;2022-10-04T12:12:42;25.40;52.90
32394;DHT22;18853;45.426;9.206;2022-10-04T12:15:37;25.60;52.80
32394;DHT22;18853;45.426;9.206;2022-10-04T12:21:17;25.60;52.10
32394;DHT22;18853;45.426;9.206;2022-10-04T12:26:44;25.60;52.90
32394;DHT22;18853;45.426;9.206;2022-10-04T12:29:40;25.60;52.00
32394;DHT22;18853;45.426;9.206;2022-10-04T12:32:15;25.50;51.90
32394;DHT22;18853;45.426;9.206;2022-10-04T12:37:38;25.50;51.90
32394;DHT22;18853;45.426;9.206;2022-10-04T12:51:08;25.70;51.60
32394;DHT22;18853;45.426;9.206;2022-10-04T13:18:25;26.40;48.80
32394;DHT22;18853;45.426;9.206;2022-10-04T13:21:02;26.50;48.60
32394;DHT22;18853;45.426;9.206;2022-10-04T13:26:41;26.50;49.10
32394;DHT22;18853;45.426;9.206;2022-10-04T13:29:23;26.60;49.00
32394;DHT22;18853;45.426;9.206;2022-10-04T13:32:06;26.50;48.90
32394;DHT22;18853;45.426;9.206;2022-10-04T13:34:40;26.60;48.90
32394;DHT22;18853;45.426;9.206;2022-10-04T13:45:26;26.70;48.80
32394;DHT22;18853;45.426;9.206;2022-10-04T13:48:06;26.70;48.60
32394;DHT22;18853;45.426;9.206;2022-10-04T13:51:09;26.60;48.70
32394;DHT22;18853;45.426;9.206;2022-10-04T13:54:06;26.70;48.30
32394;DHT22;18853;45.426;9.206;2022-10-04T13:57:17;26.70;48.80
32394;DHT22;18853;45.426;9.206;2022-10-04T14:46:19;28.50;45.00
32394;DHT22;18853;45.426;9.206;2022-10-04T14:57:24;28.60;44.20
32394;DHT22;18853;45.426;9.206;2022-10-04T15:08:28;28.50;44.50
32394;DHT22;18853;45.426;9.206;2022-10-04T15:11:16;28.50;43.70
32394;DHT22;18853;45.426;9.206;2022-10-04T15:13:57;28.60;43.80
32394;DHT22;18853;45.426;9.206;2022-10-04T15:16:53;28.60;43.80
32394;DHT22;18853;45.426;9.206;2022-10-04T15:21:46;28.60;43.90
32394;DHT22;18853;45.426;9.206;2022-10-04T15:32:29;28.50;44.20
32394;DHT22;18853;45.426;9.206;2022-10-04T15:40:32;28.40;44.80
32394;DHT22;18853;45.426;9.206;2022-10-04T15:48:51;28.40;44.10
32394;DHT22;18853;45.426;9.206;2022-10-04T16:02:23;28.20;44.80
32394;DHT22;18853;45.426;9.206;2022-10-04T16:04:59;28.10;44.90
32394;DHT22;18853;45.426;9.206;2022-10-04T16:07:58;28.00;45.30
32394;DHT22;18853;45.426;9.206;2022-10-04T16:18:52;27.60;45.10
32394;DHT22;18853;45.426;9.206;2022-10-04T16:53:29;26.90;47.00
32394;DHT22;18853;45.426;9.206;2022-10-04T16:56:13;26.90;47.10
32394;DHT22;18853;45.426;9.206;2022-10-04T16:58:49;26.90;47.20
32394;DHT22;18853;45.426;9.206;2022-10-04T17:06:41;26.70;47.50
32394;DHT22;18853;45.426;9.206;2022-10-04T17:09:16;26.70;47.50
32394;DHT22;18853;45.426;9.206;2022-10-04T17:11:43;26.70;47.70
32394;DHT22;18853;45.426;9.206;2022-10-04T17:17:50;26.60;47.80
32394;DHT22;18853;45.426;9.206;2022-10-04T17:20:26;26.50;47.90
32394;DHT22;18853;45.426;9.206;2022-10-04T17:38:44;26.20;48.60
32394;DHT22;18853;45.426;9.206;2022-10-04T17:48:57;26.20;49.00
32394;DHT22;18853;45.426;9.206;2022-10-04T17:51:52;26.10;49.20
32394;DHT22;18853;45.426;9.206;2022-10-04T17:54:39;26.10;49.30
32394;DHT22;18853;45.426;9.206;2022-10-04T17:57:43;26.10;49.50
32394;DHT22;18853;45.426;9.206;2022-10-04T18:00:13;26.10;49.40
32394;DHT22;18853;45.426;9.206;2022-10-04T18:05:42;26.00;49.50
32394;DHT22;18853;45.426;9.206;2022-10-04T18:11:00;26.00;49.60
32394;DHT22;18853;45.426;9.206;2022-10-04T18:13:35;25.90;49.70
32394;DHT22;18853;45.426;9.206;2022-10-04T18:18:49;25.90;49.90
32394;DHT22;18853;45.426;9.206;2022-10-04T18:21:25;25.80;50.00
32394;DHT22;18853;45.426;9.206;2022-10-04T18:24:00;25.90;50.10
32394;DHT22;18853;45.426;9.206;2022-10-04T18:26:31;25.90;50.10
32394;DHT22;18853;45.426;9.206;2022-10-04T18:28:59;25.80;50.10
32394;DHT22;18853;45.426;9.206;2022-10-04T18:31:37;25.80;50.20
32394;DHT22;18853;45.426;9.206;2022-10-04T18:39:46;25.70;50.50
32394;DHT22;18853;45.426;9.206;2022-10-04T18:42:29;25.60;50.60
32394;DHT22;18853;45.426;9.206;2022-10-04T18:45:03;25.70;50.50
32394;DHT22;18853;45.426;9.206;2022-10-04T18:47:39;25.60;50.80
32394;DHT22;18853;45.426;9.206;2022-10-04T18:55:40;25.50;51.10
32394;DHT22;18853;45.426;9.206;2022-10-04T19:04:42;25.50;51.30
32394;DHT22;18853;45.426;9.206;2022-10-04T19:18:45;25.30;51.80
32394;DHT22;18853;45.426;9.206;2022-10-04T19:27:09;25.30;51.70
32394;DHT22;18853;45.426;9.206;2022-10-04T19:30:17;25.30;51.90
32394;DHT22;18853;45.426;9.206;2022-10-04T19:33:22;25.30;51.90
32394;DHT22;18853;45.426;9.206;2022-10-04T19:41:23;25.20;52.00
32394;DHT22;18853;45.426;9.206;2022-10-04T19:49:24;25.10;52.20
32394;DHT22;18853;45.426;9.206;2022-10-04T19:52:21;25.10;52.20
32394;DHT22;18853;45.426;9.206;2022-10-04T19:57:36;25.10;52.30
32394;DHT22;18853;45.426;9.206;2022-10-04T20:00:09;25.00;52.30
32394;DHT22;18853;45.426;9.206;2022-10-04T20:02:38;25.00;52.30
32394;DHT22;18853;45.426;9.206;2022-10-04T20:05:14;25.00;52.40
32394;DHT22;18853;45.426;9.206;2022-10-04T20:07:48;25.00;52.40
32394;DHT22;18853;45.426;9.206;2022-10-04T20:10:34;25.00;52.30
32394;DHT22;18853;45.426;9.206;2022-10-04T20:26:04;24.80;52.60
32394;DHT22;18853;45.426;9.206;2022-10-04T20:33:52;24.80;52.70
32394;DHT22;18853;45.426;9.206;2022-10-04T20:37:06;24.70;52.90
32394;DHT22;18853;45.426;9.206;2022-10-04T20:47:47;24.50;53.10
32394;DHT22;18853;45.426;9.206;2022-10-04T20:52:53;24.60;53.00
32394;DHT22;18853;45.426;9.206;2022-10-04T20:55:25;24.60;53.00
32394;DHT22;18853;45.426;9.206;2022-10-04T20:58:00;24.60;53.00
32394;DHT22;18853;45.426;9.206;2022-10-04T21:00:30;24.60;52.90
32394;DHT22;18853;45.426;9.206;2022-10-04T21:03:15;24.60;53.00
32394;DHT22;18853;45.426;9.206;2022-10-04T21:05:42;24.50;52.90
32394;DHT22;18853;45.426;9.206;2022-10-04T21:08:23;24.50;53.10
32394;DHT22;18853;45.426;9.206;2022-10-04T21:11:21;24.50;53.10
32394;DHT22;18853;45.426;9.206;2022-10-04T21:13:48;24.50;53.10
32394;DHT22;18853;45.426;9.206;2022-10-04T21:21:59;24.40;53.30
32394;DHT22;18853;45.426;9.206;2022-10-04T21:30:19;24.40;53.50
32394;DHT22;18853;45.426;9.206;2022-10-04T21:32:45;24.40;53.60
32394;DHT22;18853;45.426;9.206;2022-10-04T21:35:11;24.30;53.70
32394;DHT22;18853;45.426;9.206;2022-10-04T21:37:37;24.30;53.70
32394;DHT22;18853;45.426;9.206;2022-10-04T21:40:05;24.30;53.80
32394;DHT22;18853;45.426;9.206;2022-10-04T21:42:31;24.30;53.80
32394;DHT22;18853;45.426;9.206;2022-10-04T21:44:57;24.30;53.90
32394;DHT22;18853;45.426;9.206;2022-10-04T21:47:22;24.20;53.90
32394;DHT22;18853;45.426;9.206;2022-10-04T21:49:49;24.30;54.00
32394;DHT22;18853;45.426;9.206;2022-10-04T21:52:16;24.30;54.00
32394;DHT22;18853;45.426;9.206;2022-10-04T21:54:43;24.20;53.90
32394;DHT22;18853;45.426;9.206;2022-10-04T21:57:09;24.20;54.00
32394;DHT22;18853;45.426;9.206;2022-10-04T21:59:34;24.20;54.10
32394;DHT22;18853;45.426;9.206;2022-10-04T22:02:00;24.20;54.10
32394;DHT22;18853;45.426;9.206;2022-10-04T22:04:26;24.10;54.10
32394;DHT22;18853;45.426;9.206;2022-10-04T22:06:51;24.10;54.20
32394;DHT22;18853;45.426;9.206;2022-10-04T22:09:17;24.10;54.30
32394;DHT22;18853;45.426;9.206;2022-10-04T22:11:42;24.10;54.30
32394;DHT22;18853;45.426;9.206;2022-10-04T22:14:08;24.10;54.40
32394;DHT22;18853;45.426;9.206;2022-10-04T22:16:34;24.10;54.40
32394;DHT22;18853;45.426;9.206;2022-10-04T22:19:00;24.10;54.40
32394;DHT22;18853;45.426;9.206;2022-10-04T22:21:25;24.10;54.50
32394;DHT22;18853;45.426;9.206;2022-10-04T22:23:51;24.00;54.50
32394;DHT22;18853;45.426;9.206;2022-10-04T22:26:19;24.00;54.50
32394;DHT22;18853;45.426;9.206;2022-10-04T22:28:50;24.10;54.50
32394;DHT22;18853;45.426;9.206;2022-10-04T22:31:21;24.10;54.60
32394;DHT22;18853;45.426;9.206;2022-10-04T22:33:49;24.00;54.70
32394;DHT22;18853;45.426;9.206;2022-10-04T22:36:22;24.00;54.70
32394;DHT22;18853;45.426;9.206;2022-10-04T22:41:36;24.00;54.80
32394;DHT22;18853;45.426;9.206;2022-10-04T22:44:13;24.00;55.00
32394;DHT22;18853;45.426;9.206;2022-10-04T22:46:41;24.00;54.90
32394;DHT22;18853;45.426;9.206;2022-10-04T22:49:14;23.90;54.90
32394;DHT22;18853;45.426;9.206;2022-10-04T22:51:42;23.90;55.00
32394;DHT22;18853;45.426;9.206;2022-10-04T22:54:13;23.90;55.10
32394;DHT22;18853;45.426;9.206;2022-10-04T22:56:40;23.90;55.10
32394;DHT22;18853;45.426;9.206;2022-10-04T22:59:09;23.90;55.20
32394;DHT22;18853;45.426;9.206;2022-10-04T23:01:35;23.90;55.20
32394;DHT22;18853;45.426;9.206;2022-10-04T23:04:01;23.90;55.20
32394;DHT22;18853;45.426;9.206;2022-10-04T23:06:26;23.80;55.20
32394;DHT22;18853;45.426;9.206;2022-10-04T23:08:52;23.80;55.30
32394;DHT22;18853;45.426;9.206;2022-10-04T23:11:18;23.90;55.40
32394;DHT22;18853;45.426;9.206;2022-10-04T23:13:43;23.80;55.40
32394;DHT22;18853;45.426;9.206;2022-10-04T23:16:15;23.80;55.40
32394;DHT22;18853;45.426;9.206;2022-10-04T23:18:41;23.90;55.40
32394;DHT22;18853;45.426;9.206;2022-10-04T23:21:18;23.80;55.30
32394;DHT22;18853;45.426;9.206;2022-10-04T23:23:45;23.90;55.30
32394;DHT22;18853;45.426;9.206;2022-10-04T23:26:12;23.80;55.30
32394;DHT22;18853;45.426;9.206;2022-10-04T23:28:41;23.80;55.30
32394;DHT22;18853;45.426;9.206;2022-10-04T23:31:22;23.80;55.40
32394;DHT22;18853;45.426;9.206;2022-10-04T23:33:49;23.80;55.50
32394;DHT22;18853;45.426;9.206;2022-10-04T23:36:15;23.80;55.60
32394;DHT22;18853;45.426;9.206;2022-10-04T23:38:54;23.80;55.60
32394;DHT22;18853;45.426;9.206;2022-10-04T23:41:20;23.80;55.60
32394;DHT22;18853;45.426;9.206;2022-10-04T23:43:48;23.70;55.60
32394;DHT22;18853;45.426;9.206;2022-10-04T23:48:47;23.80;55.70
32394;DHT22;18853;45.426;9.206;2022-10-04T23:51:15;23.70;55.80
32394;DHT22;18853;45.426;9.206;2022-10-04T23:53:42;23.70;55.70
32394;DHT22;18853;45.426;9.206;2022-10-04T23:56:23;23.70;56.30
32394;DHT22;18853;45.426;9.206;2022-10-04T23:58:51;23.70;55.80
